Time;durP1;ratioP1;P1;durP2;ratioP2;P2;SDS_P1;SDS_P2;PMS_P1;PMS_P2;Temp;Humidity;BMP_temperature;BMP_pressure;BME280_temperature;BME280_humidity;BME280_pressure;Samples;Min_cycle;Max_cycle;Signal;HPM_P1;HPM_P2
2021/06/30 00:01:42;;;;;;;11.83;10.90;;;34.20;57.40;;;;;;5062278;28;20980;-28
2021/06/30 00:04:17;;;;;;;11.80;11.00;;;34.30;57.70;;;;;;5061839;28;20548;-26
2021/06/30 00:06:50;;;;;;;11.40;10.70;;;34.30;57.50;;;;;;5062012;28;20498;-24
2021/06/30 00:09:26;;;;;;;11.60;10.80;;;34.40;57.40;;;;;;5060849;28;20444;-24
2021/06/30 00:12:02;;;;;;;11.23;10.43;;;34.40;58.00;;;;;;5056962;28;20526;-28
2021/06/30 00:14:39;;;;;;;10.53;9.93;;;34.50;58.00;;;;;;5057485;28;20446;-26
2021/06/30 00:17:15;;;;;;;11.73;10.87;;;34.50;58.00;;;;;;5061937;28;20507;-26
2021/06/30 00:19:51;;;;;;;10.60;9.90;;;34.50;57.30;;;;;;5061627;28;20521;-24
2021/06/30 00:22:27;;;;;;;11.17;10.27;;;34.50;58.10;;;;;;5061533;28;20461;-24
2021/06/30 00:25:03;;;;;;;10.80;10.20;;;34.50;57.90;;;;;;5045361;28;20451;-26
2021/06/30 00:27:39;;;;;;;11.63;10.73;;;34.30;57.80;;;;;;5051945;28;21011;-27
2021/06/30 00:30:18;;;;;;;12.27;11.47;;;34.10;59.10;;;;;;5065607;28;20438;-24
2021/06/30 00:32:54;;;;;;;12.93;12.13;;;34.00;58.90;;;;;;5065509;28;20464;-26
2021/06/30 00:35:30;;;;;;;11.87;11.07;;;34.00;58.10;;;;;;5057891;28;20461;-25
2021/06/30 00:38:06;;;;;;;12.63;11.83;;;33.80;58.80;;;;;;5060603;28;20513;-23
2021/06/30 00:40:41;;;;;;;12.27;11.17;;;33.70;58.90;;;;;;5064174;28;20562;-23
2021/06/30 00:43:19;;;;;;;12.63;11.83;;;33.60;59.50;;;;;;5064107;28;20516;-24
2021/06/30 00:45:56;;;;;;;11.63;10.73;;;33.60;60.30;;;;;;5065322;28;20534;-23
2021/06/30 00:48:32;;;;;;;11.07;10.40;;;33.50;60.80;;;;;;5064904;28;20562;-25
2021/06/30 00:51:09;;;;;;;11.57;10.77;;;33.50;60.00;;;;;;5063021;28;20500;-24
2021/06/30 00:53:45;;;;;;;11.53;10.47;;;33.40;60.30;;;;;;5065292;28;21091;-27
2021/06/30 00:56:24;;;;;;;11.17;10.47;;;33.40;60.70;;;;;;5063245;28;20570;-28
2021/06/30 00:59:01;;;;;;;12.60;11.80;;;33.30;59.80;;;;;;5064738;28;20477;-27
2021/06/30 01:01:38;;;;;;;15.10;14.00;;;33.30;60.30;;;;;;5064265;28;21022;-24
2021/06/30 01:04:14;;;;;;;12.40;11.63;;;33.30;60.90;;;;;;5065039;28;20554;-26
2021/06/30 01:06:50;;;;;;;11.90;11.10;;;33.10;60.30;;;;;;5065261;28;20489;-26
2021/06/30 01:09:26;;;;;;;10.10;9.50;;;33.10;60.70;;;;;;5063803;28;20481;-23
2021/06/30 01:12:02;;;;;;;18.13;16.60;;;33.10;61.20;;;;;;5064317;28;20539;-24
2021/06/30 01:14:38;;;;;;;27.87;25.67;;;32.90;61.20;;;;;;5064249;28;20526;-24
2021/06/30 01:17:15;;;;;;;15.33;14.30;;;32.90;61.90;;;;;;5049201;28;20555;-26
2021/06/30 01:19:51;;;;;;;12.90;12.00;;;32.80;61.60;;;;;;5063458;28;20513;-24
2021/06/30 01:22:27;;;;;;;9.70;8.90;;;32.60;62.90;;;;;;5062152;28;20439;-28
2021/06/30 01:25:05;;;;;;;9.33;8.73;;;32.50;63.80;;;;;;5063921;28;20505;-24
2021/06/30 01:27:41;;;;;;;10.80;10.10;;;32.50;63.20;;;;;;5063640;28;20538;-25
2021/06/30 01:30:20;;;;;;;9.97;8.93;;;32.50;63.60;;;;;;5063660;28;20452;-23
2021/06/30 01:32:56;;;;;;;9.90;9.30;;;32.40;63.40;;;;;;5063295;28;20544;-26
2021/06/30 01:35:34;;;;;;;9.00;8.33;;;32.40;64.10;;;;;;5057283;28;20487;-29
2021/06/30 01:38:10;;;;;;;8.30;7.80;;;32.30;64.80;;;;;;5062575;28;20519;-29
2021/06/30 01:40:47;;;;;;;9.43;8.83;;;32.20;65.80;;;;;;5062202;28;20558;-24
2021/06/30 01:43:24;;;;;;;9.37;8.67;;;32.20;65.00;;;;;;5063162;28;20522;-25
2021/06/30 01:45:59;;;;;;;9.20;8.40;;;32.20;65.90;;;;;;5061271;28;20446;-24
2021/06/30 01:48:35;;;;;;;8.27;7.63;;;32.00;64.50;;;;;;5062908;28;20542;-23
2021/06/30 01:51:12;;;;;;;8.37;7.57;;;31.90;64.90;;;;;;5063086;28;20556;-24
2021/06/30 01:53:48;;;;;;;8.17;7.50;;;31.80;66.20;;;;;;5057018;28;20449;-26
2021/06/30 01:56:26;;;;;;;9.60;8.80;;;31.80;66.60;;;;;;5063229;28;21074;-25
2021/06/30 01:59:04;;;;;;;10.13;9.40;;;31.70;65.30;;;;;;5063883;28;20616;-27
2021/06/30 02:01:44;;;;;;;7.87;7.20;;;31.70;66.60;;;;;;5063184;28;20478;-24
2021/06/30 02:04:19;;;;;;;7.70;7.30;;;31.60;66.30;;;;;;5062941;28;21202;-23
2021/06/30 02:06:55;;;;;;;7.63;7.13;;;31.60;66.30;;;;;;5063111;28;20460;-23
2021/06/30 02:09:31;;;;;;;8.33;7.73;;;31.60;66.90;;;;;;5062896;28;20969;-23
2021/06/30 02:12:09;;;;;;;7.67;7.20;;;31.50;66.10;;;;;;5062483;28;20542;-23
2021/06/30 02:14:45;;;;;;;8.40;7.90;;;31.40;67.30;;;;;;5063108;28;20465;-26
2021/06/30 02:17:18;;;;;;;7.13;6.63;;;31.20;68.00;;;;;;5063641;28;20456;-24
2021/06/30 02:19:54;;;;;;;7.13;6.73;;;31.20;68.10;;;;;;5063474;28;20527;-27
2021/06/30 02:22:30;;;;;;;7.40;6.80;;;31.00;67.70;;;;;;5062194;28;20541;-24
2021/06/30 02:25:07;;;;;;;8.00;7.30;;;30.90;67.10;;;;;;5062248;28;20453;-25
2021/06/30 02:27:45;;;;;;;8.17;7.67;;;30.80;68.10;;;;;;5062973;28;20550;-24
2021/06/30 02:30:22;;;;;;;7.80;7.23;;;30.80;67.20;;;;;;5062827;28;20453;-23
2021/06/30 02:33:00;;;;;;;7.40;6.80;;;30.80;68.80;;;;;;5057995;28;20465;-23
2021/06/30 02:35:41;;;;;;;7.30;6.90;;;30.80;68.40;;;;;;5062086;28;20511;-26
2021/06/30 02:38:17;;;;;;;7.80;7.10;;;30.70;68.00;;;;;;5058023;28;20831;-27
2021/06/30 02:40:52;;;;;;;7.30;6.70;;;30.70;68.50;;;;;;5061383;28;20489;-23
2021/06/30 02:43:30;;;;;;;8.17;7.57;;;30.60;70.30;;;;;;5060980;28;20476;-25
2021/06/30 02:46:06;;;;;;;7.90;7.40;;;30.60;69.60;;;;;;5055982;28;20815;-25
2021/06/30 02:48:42;;;;;;;8.53;7.60;;;30.60;70.00;;;;;;5062397;28;20450;-23
2021/06/30 02:51:18;;;;;;;8.00;7.30;;;30.40;70.10;;;;;;5061851;28;20548;-25
2021/06/30 02:53:54;;;;;;;8.07;7.27;;;30.30;70.10;;;;;;5061989;28;20450;-24
2021/06/30 02:56:30;;;;;;;8.40;7.60;;;30.20;70.60;;;;;;5060313;28;20949;-25
2021/06/30 02:59:07;;;;;;;8.17;7.47;;;30.00;71.70;;;;;;5060565;28;20534;-27
2021/06/30 03:01:43;;;;;;;7.67;7.17;;;29.90;71.70;;;;;;5059278;28;20495;-28
2021/06/30 03:04:19;;;;;;;7.50;7.00;;;29.80;72.40;;;;;;5061486;28;20481;-24
2021/06/30 03:06:55;;;;;;;7.40;6.80;;;29.80;74.10;;;;;;5062027;28;20470;-25
2021/06/30 03:09:30;;;;;;;6.93;6.43;;;29.80;73.90;;;;;;5059334;28;20475;-28
2021/06/30 03:12:07;;;;;;;6.77;6.27;;;29.80;74.40;;;;;;5061005;28;20452;-25
2021/06/30 03:14:44;;;;;;;6.60;6.10;;;29.60;75.60;;;;;;5059598;28;20999;-22
2021/06/30 03:17:20;;;;;;;6.23;5.83;;;29.50;76.00;;;;;;5061623;28;20454;-23
2021/06/30 03:19:56;;;;;;;5.73;5.33;;;29.30;75.80;;;;;;5062101;28;20455;-23
2021/06/30 03:22:31;;;;;;;6.33;5.70;;;28.90;77.00;;;;;;5056483;28;20500;-22
2021/06/30 03:25:09;;;;;;;6.03;5.17;;;28.70;78.10;;;;;;5061919;28;20560;-24
2021/06/30 03:27:45;;;;;;;5.73;5.33;;;28.60;78.20;;;;;;5062572;28;20463;-23
2021/06/30 03:30:23;;;;;;;6.33;5.90;;;28.50;78.70;;;;;;5061768;28;20435;-23
2021/06/30 03:32:58;;;;;;;5.40;5.00;;;28.40;78.20;;;;;;5062204;28;20780;-23
2021/06/30 03:35:34;;;;;;;7.60;5.40;;;28.20;79.00;;;;;;5061602;28;20501;-23
2021/06/30 03:38:10;;;;;;;5.73;5.33;;;27.90;80.10;;;;;;5056185;28;20480;-23
2021/06/30 03:40:45;;;;;;;5.20;4.70;;;27.70;80.90;;;;;;5058325;28;20545;-23
2021/06/30 03:43:21;;;;;;;5.50;4.80;;;27.60;81.50;;;;;;5061372;28;20538;-23
2021/06/30 03:45:59;;;;;;;5.00;4.60;;;27.50;82.30;;;;;;5059713;28;20492;-23
2021/06/30 03:48:34;;;;;;;5.00;4.70;;;27.40;81.80;;;;;;5054584;28;20261;-27
2021/06/30 03:51:11;;;;;;;4.70;4.30;;;27.20;82.50;;;;;;5062046;28;20881;-23
2021/06/30 03:53:47;;;;;;;4.90;4.50;;;26.90;83.30;;;;;;5061648;28;20942;-22
2021/06/30 03:56:26;;;;;;;5.40;5.00;;;26.80;83.70;;;;;;5061158;28;20528;-23
2021/06/30 03:59:01;;;;;;;5.73;5.27;;;26.70;85.10;;;;;;5061585;28;20552;-22
2021/06/30 04:01:39;;;;;;;5.00;4.70;;;26.60;86.20;;;;;;5062736;28;20570;-22
2021/06/30 04:04:16;;;;;;;5.27;4.87;;;26.50;86.50;;;;;;5065163;28;20953;-23
2021/06/30 04:06:52;;;;;;;5.10;4.77;;;26.40;86.60;;;;;;5065999;28;20444;-23
2021/06/30 04:09:27;;;;;;;4.77;4.40;;;26.40;87.50;;;;;;5064494;28;20540;-24
2021/06/30 04:12:06;;;;;;;6.17;5.20;;;26.20;89.00;;;;;;5060512;28;20468;-24
2021/06/30 04:14:42;;;;;;;5.60;5.13;;;26.00;89.80;;;;;;5064448;28;20448;-24
2021/06/30 04:17:19;;;;;;;4.90;4.47;;;25.90;90.40;;;;;;5065423;28;20456;-23
2021/06/30 04:19:55;;;;;;;5.13;4.73;;;25.80;90.40;;;;;;5064819;28;20450;-22
2021/06/30 04:22:30;;;;;;;4.90;4.50;;;25.50;91.00;;;;;;5063959;28;20594;-22
2021/06/30 04:25:07;;;;;;;5.30;4.90;;;25.30;92.00;;;;;;5063591;28;20866;-26
2021/06/30 04:27:43;;;;;;;7.07;5.00;;;25.10;92.90;;;;;;5065578;28;20440;-24
2021/06/30 04:30:19;;;;;;;5.57;5.07;;;25.00;93.30;;;;;;5065337;28;20444;-24
2021/06/30 04:32:59;;;;;;;5.17;4.77;;;25.00;93.70;;;;;;5064873;28;20539;-22
2021/06/30 04:35:35;;;;;;;6.13;5.60;;;25.00;94.20;;;;;;5058658;28;20472;-23
2021/06/30 04:38:11;;;;;;;5.80;5.40;;;25.00;94.80;;;;;;5065011;28;20522;-22
2021/06/30 04:40:47;;;;;;;5.10;4.80;;;24.80;95.30;;;;;;5049939;28;20498;-23
2021/06/30 04:43:28;;;;;;;5.60;5.10;;;24.80;95.30;;;;;;5065344;28;20987;-22
2021/06/30 04:46:04;;;;;;;5.47;5.00;;;24.70;95.70;;;;;;5065251;28;20458;-22
2021/06/30 04:48:42;;;;;;;5.50;5.00;;;24.60;95.90;;;;;;5064808;28;20454;-26
2021/06/30 04:51:18;;;;;;;5.63;5.23;;;24.60;96.50;;;;;;5064784;28;20510;-21
2021/06/30 04:53:54;;;;;;;5.50;5.00;;;24.60;96.60;;;;;;5058298;28;20490;-23
2021/06/30 04:56:39;;;;;;;5.67;5.10;;;24.60;96.90;;;;;;5063390;28;20462;-23
2021/06/30 04:59:27;;;;;;;5.73;5.30;;;24.50;97.10;;;;;;5063038;28;20478;-25
2021/06/30 05:02:05;;;;;;;5.77;5.30;;;24.40;97.60;;;;;;5063740;28;20630;-27
2021/06/30 05:04:46;;;;;;;6.20;5.70;;;24.30;98.00;;;;;;5063585;28;20902;-25
2021/06/30 05:07:22;;;;;;;5.97;5.60;;;24.30;98.00;;;;;;5064055;28;20760;-24
2021/06/30 05:09:58;;;;;;;5.50;5.10;;;24.20;98.50;;;;;;5062103;28;20489;-24
2021/06/30 05:12:33;;;;;;;5.90;5.47;;;24.10;99.20;;;;;;5062123;28;20538;-24
2021/06/30 05:15:12;;;;;;;7.70;5.97;;;23.90;99.60;;;;;;5061364;28;20476;-23
2021/06/30 05:17:48;;;;;;;6.27;5.77;;;23.90;99.60;;;;;;5061073;28;20452;-22
2021/06/30 05:20:26;;;;;;;5.70;5.30;;;23.90;99.90;;;;;;5060337;28;20451;-25
2021/06/30 05:23:01;;;;;;;6.00;5.60;;;23.80;99.90;;;;;;5060681;28;20554;-24
2021/06/30 05:25:39;;;;;;;6.03;5.43;;;23.70;99.90;;;;;;5063282;28;20750;-24
2021/06/30 05:28:19;;;;;;;5.80;5.37;;;23.60;99.90;;;;;;5064223;28;20871;-28
2021/06/30 05:30:55;;;;;;;6.03;5.63;;;23.50;99.90;;;;;;5056274;28;20467;-23
2021/06/30 05:33:33;;;;;;;8.23;6.90;;;23.40;99.90;;;;;;5063784;28;20578;-23
2021/06/30 05:36:11;;;;;;;6.10;5.70;;;23.50;99.90;;;;;;5063403;28;20419;-23
2021/06/30 05:38:47;;;;;;;5.83;5.43;;;23.40;99.90;;;;;;5061216;28;20532;-27
2021/06/30 05:41:23;;;;;;;7.00;5.80;;;23.30;99.90;;;;;;5062524;28;20542;-25
2021/06/30 05:43:59;;;;;;;6.70;6.10;;;23.30;99.90;;;;;;5064159;28;20471;-25
2021/06/30 05:46:34;;;;;;;7.00;6.40;;;23.30;99.90;;;;;;5063438;28;20415;-23
2021/06/30 05:49:16;;;;;;;6.77;6.20;;;23.40;99.90;;;;;;5063979;28;20522;-25
2021/06/30 05:51:54;;;;;;;6.70;6.30;;;23.30;99.90;;;;;;5057993;28;20452;-22
2021/06/30 05:54:30;;;;;;;6.40;5.90;;;23.20;99.90;;;;;;5063064;28;20751;-25
2021/06/30 05:57:11;;;;;;;6.83;6.27;;;23.20;99.90;;;;;;5063689;28;20434;-24
2021/06/30 05:59:50;;;;;;;6.03;5.53;;;23.20;99.90;;;;;;5063471;28;20441;-27
2021/06/30 06:02:25;;;;;;;6.33;5.83;;;23.10;99.90;;;;;;5063410;28;20907;-23
2021/06/30 06:05:01;;;;;;;6.77;6.27;;;23.10;99.90;;;;;;5063540;28;20757;-22
2021/06/30 06:07:41;;;;;;;6.47;5.97;;;23.10;99.90;;;;;;5063809;28;20850;-22
2021/06/30 06:10:16;;;;;;;6.47;5.97;;;22.90;99.90;;;;;;5062251;28;20482;-24
2021/06/30 06:12:51;;;;;;;7.33;6.73;;;23.00;99.90;;;;;;5061107;28;20525;-22
2021/06/30 06:15:30;;;;;;;6.90;6.40;;;23.00;99.90;;;;;;5062960;28;20515;-22
2021/06/30 06:18:15;;;;;;;6.90;6.40;;;23.00;99.90;;;;;;5063871;28;20523;-22
2021/06/30 06:20:51;;;;;;;6.60;6.10;;;22.90;99.90;;;;;;5063197;28;20535;-22
2021/06/30 06:23:31;;;;;;;7.63;7.03;;;22.80;99.90;;;;;;5062327;28;20503;-23
2021/06/30 06:26:12;;;;;;;6.57;6.00;;;22.80;99.90;;;;;;5050566;28;20675;-22
2021/06/30 06:28:48;;;;;;;7.13;6.53;;;22.80;99.90;;;;;;5062931;28;20441;-24
2021/06/30 06:31:27;;;;;;;6.80;6.00;;;22.80;99.90;;;;;;5062524;28;20437;-23
2021/06/30 06:34:02;;;;;;;7.77;6.70;;;22.70;99.90;;;;;;5063114;28;20539;-24
2021/06/30 06:36:38;;;;;;;6.90;6.30;;;22.70;99.90;;;;;;5062278;28;20452;-23
2021/06/30 06:39:19;;;;;;;6.40;5.90;;;22.60;99.90;;;;;;5053322;28;20507;-24
2021/06/30 06:41:57;;;;;;;7.23;6.63;;;22.60;99.90;;;;;;5062989;28;20430;-24
2021/06/30 06:44:36;;;;;;;6.53;6.13;;;22.60;99.90;;;;;;5048551;28;20441;-24
2021/06/30 06:47:12;;;;;;;7.10;6.40;;;22.50;99.90;;;;;;5062672;28;20542;-27
2021/06/30 06:49:51;;;;;;;7.40;6.80;;;22.40;99.90;;;;;;5063235;28;20552;-26
2021/06/30 06:52:28;;;;;;;7.13;6.43;;;22.40;99.90;;;;;;5062432;28;20418;-23
2021/06/30 06:55:10;;;;;;;7.20;6.60;;;22.30;99.90;;;;;;5061856;28;20471;-23
2021/06/30 06:57:49;;;;;;;7.00;6.40;;;22.30;99.90;;;;;;5062157;28;20522;-24
2021/06/30 07:00:25;;;;;;;7.13;6.67;;;22.30;99.90;;;;;;5062440;28;20450;-27
2021/06/30 07:03:03;;;;;;;7.10;6.50;;;22.30;99.90;;;;;;5062934;28;20447;-24
2021/06/30 07:05:44;;;;;;;7.00;6.50;;;22.20;99.90;;;;;;5055826;28;20469;-26
2021/06/30 07:08:27;;;;;;;7.40;6.70;;;22.10;99.90;;;;;;5059464;28;20543;-23
2021/06/30 07:11:04;;;;;;;6.97;6.47;;;22.20;99.90;;;;;;5061378;28;20623;-22
2021/06/30 07:13:41;;;;;;;6.93;6.33;;;22.10;99.90;;;;;;5059482;28;21004;-23
2021/06/30 07:16:17;;;;;;;7.20;6.60;;;22.00;99.90;;;;;;5062453;28;20540;-24
2021/06/30 07:18:52;;;;;;;7.90;7.10;;;22.00;99.90;;;;;;5062508;28;20538;-24
2021/06/30 07:21:28;;;;;;;6.70;6.07;;;22.00;99.90;;;;;;5062278;28;20507;-22
2021/06/30 07:24:06;;;;;;;7.20;6.70;;;21.90;99.90;;;;;;5062577;28;20567;-22
2021/06/30 07:26:44;;;;;;;6.40;5.80;;;21.80;99.90;;;;;;5061990;28;20454;-24
2021/06/30 07:29:22;;;;;;;6.70;6.17;;;21.80;99.90;;;;;;5061436;28;20423;-22
2021/06/30 07:31:58;;;;;;;6.97;6.47;;;21.80;99.90;;;;;;5062135;28;20531;-22
2021/06/30 07:34:36;;;;;;;7.23;6.60;;;21.70;99.90;;;;;;5062071;28;20476;-22
2021/06/30 07:37:12;;;;;;;8.40;7.70;;;21.70;99.90;;;;;;5061125;28;20439;-23
2021/06/30 07:39:48;;;;;;;7.57;6.97;;;21.70;99.90;;;;;;5060764;28;20447;-24
2021/06/30 07:42:31;;;;;;;8.27;7.43;;;21.60;99.90;;;;;;5062516;28;20760;-23
2021/06/30 07:45:07;;;;;;;7.03;6.43;;;21.60;99.90;;;;;;5047869;28;20585;-23
2021/06/30 07:47:38;;;;;;;7.83;7.17;;;21.50;99.90;;;;;;5061823;28;20502;-23
2021/06/30 07:50:12;;;;;;;6.63;5.90;;;21.50;99.90;;;;;;5061700;28;20488;-22
2021/06/30 07:52:45;;;;;;;7.13;6.57;;;21.40;99.90;;;;;;5060599;28;20452;-23
2021/06/30 07:55:16;;;;;;;7.93;6.60;;;21.30;99.90;;;;;;5061183;28;20466;-23
2021/06/30 07:57:49;;;;;;;7.40;6.80;;;21.40;99.90;;;;;;5061483;28;20423;-20
2021/06/30 08:00:20;;;;;;;7.07;6.37;;;21.30;99.90;;;;;;5061616;28;20426;-21
2021/06/30 08:02:56;;;;;;;7.13;6.50;;;21.30;99.90;;;;;;5060940;28;20793;-25
2021/06/30 08:05:28;;;;;;;7.33;6.73;;;21.30;99.90;;;;;;5051455;28;20427;-22
2021/06/30 08:07:58;;;;;;;7.10;6.50;;;21.30;99.90;;;;;;5061290;28;20476;-24
2021/06/30 08:10:29;;;;;;;7.43;6.77;;;21.30;99.90;;;;;;5060431;28;20422;-23
2021/06/30 08:13:05;;;;;;;6.73;6.20;;;21.30;99.90;;;;;;5059637;28;20469;-26
2021/06/30 08:15:39;;;;;;;7.43;6.77;;;21.20;99.90;;;;;;5061967;28;20453;-23
2021/06/30 08:18:12;;;;;;;7.90;7.23;;;21.20;99.90;;;;;;5061873;28;21010;-24
2021/06/30 08:20:48;;;;;;;7.77;7.23;;;21.10;99.90;;;;;;5052094;28;20423;-23
2021/06/30 08:23:19;;;;;;;7.07;6.57;;;21.10;99.90;;;;;;5062241;28;20486;-27
2021/06/30 08:25:52;;;;;;;7.90;7.20;;;21.10;99.90;;;;;;5060683;28;20445;-25
2021/06/30 08:28:28;;;;;;;8.50;7.70;;;21.10;99.90;;;;;;5062256;28;20418;-25
2021/06/30 08:30:59;;;;;;;7.07;6.40;;;21.10;99.90;;;;;;5061754;28;20525;-27
2021/06/30 08:33:30;;;;;;;6.90;6.40;;;21.00;99.90;;;;;;5061915;28;20493;-23
2021/06/30 08:36:04;;;;;;;7.67;7.00;;;20.90;99.90;;;;;;5061548;28;20511;-22
2021/06/30 08:38:35;;;;;;;7.20;6.70;;;20.90;99.90;;;;;;5060519;28;20456;-22
2021/06/30 08:41:09;;;;;;;9.17;8.37;;;20.90;99.90;;;;;;5060461;28;20434;-22
2021/06/30 08:43:41;;;;;;;8.50;7.80;;;20.80;99.90;;;;;;5062366;28;20419;-22
2021/06/30 08:46:16;;;;;;;8.30;7.50;;;20.70;99.90;;;;;;5062055;28;20452;-23
2021/06/30 08:48:50;;;;;;;7.50;7.00;;;20.80;99.90;;;;;;5064647;28;20846;-24
2021/06/30 08:51:25;;;;;;;8.33;7.63;;;20.70;99.90;;;;;;5064443;28;20451;-21
2021/06/30 08:53:57;;;;;;;9.00;7.77;;;20.80;99.90;;;;;;5065560;28;20515;-24
2021/06/30 08:56:32;;;;;;;9.20;8.50;;;20.70;99.90;;;;;;5064278;28;20448;-25
2021/06/30 08:59:10;;;;;;;8.73;7.97;;;20.70;99.90;;;;;;5062033;28;20444;-22
2021/06/30 09:01:43;;;;;;;8.20;7.70;;;20.60;99.90;;;;;;5065184;28;20559;-22
2021/06/30 09:04:14;;;;;;;8.43;7.73;;;20.60;99.90;;;;;;5064924;28;20457;-21
2021/06/30 09:06:45;;;;;;;10.30;9.60;;;20.60;99.90;;;;;;5064749;28;20444;-21
2021/06/30 09:09:17;;;;;;;8.80;8.20;;;20.60;99.90;;;;;;5063258;28;20517;-23
2021/06/30 09:11:58;;;;;;;9.80;9.00;;;20.60;99.90;;;;;;5064428;28;20450;-23
2021/06/30 09:14:38;;;;;;;10.47;9.57;;;20.60;99.90;;;;;;5060824;28;20516;-22
2021/06/30 09:17:25;;;;;;;11.83;10.93;;;20.60;99.90;;;;;;5049474;28;20444;-23
2021/06/30 09:20:08;;;;;;;10.23;9.53;;;20.60;99.90;;;;;;5063808;28;20419;-23
2021/06/30 09:22:44;;;;;;;11.53;10.40;;;20.60;99.90;;;;;;5064680;28;20523;-21
2021/06/30 09:25:33;;;;;;;11.43;10.33;;;20.60;99.90;;;;;;5050126;28;20452;-22
2021/06/30 09:28:17;;;;;;;11.43;10.63;;;20.60;99.90;;;;;;5063879;28;20454;-22
2021/06/30 09:31:09;;;;;;;11.33;10.43;;;20.60;99.90;;;;;;5063972;28;20452;-25
2021/06/30 09:33:51;;;;;;;10.50;9.80;;;20.60;99.90;;;;;;5054188;28;20430;-21
2021/06/30 09:36:23;;;;;;;11.07;10.07;;;20.60;99.90;;;;;;5056358;28;20423;-30
2021/06/30 09:38:54;;;;;;;11.77;10.80;;;20.60;99.90;;;;;;5062918;28;20456;-24
2021/06/30 09:41:29;;;;;;;11.73;10.40;;;20.60;99.90;;;;;;5063072;28;20499;-23
2021/06/30 09:44:05;;;;;;;11.27;10.27;;;20.50;99.90;;;;;;5063942;28;20461;-22
2021/06/30 09:46:42;;;;;;;10.87;10.17;;;20.50;99.90;;;;;;5064100;28;20456;-22
2021/06/30 09:49:14;;;;;;;11.33;10.53;;;20.50;99.90;;;;;;5061361;28;20448;-27
2021/06/30 09:51:46;;;;;;;11.70;10.70;;;20.40;99.90;;;;;;5063841;28;20423;-22
2021/06/30 09:54:31;;;;;;;10.60;9.80;;;20.40;99.90;;;;;;5062636;28;20488;-22
2021/06/30 09:57:06;;;;;;;11.03;10.20;;;20.30;99.90;;;;;;5063778;28;20436;-23
2021/06/30 09:59:38;;;;;;;11.17;10.23;;;20.30;99.90;;;;;;5063464;28;20891;-24
2021/06/30 10:02:12;;;;;;;11.40;10.40;;;20.30;99.90;;;;;;5063896;28;20419;-22
2021/06/30 10:04:45;;;;;;;10.03;9.33;;;20.30;99.90;;;;;;5063365;28;20933;-21
2021/06/30 10:07:24;;;;;;;11.07;10.27;;;20.20;99.90;;;;;;5063011;28;20560;-21
2021/06/30 10:10:02;;;;;;;10.20;9.30;;;20.30;99.90;;;;;;5062008;28;20434;-24
2021/06/30 10:12:38;;;;;;;12.03;10.90;;;20.20;99.90;;;;;;5063446;28;20463;-25
2021/06/30 10:15:13;;;;;;;11.70;10.80;;;20.20;99.90;;;;;;5063055;28;20450;-23
2021/06/30 10:17:46;;;;;;;10.83;10.00;;;20.10;99.90;;;;;;5064230;28;20414;-22
2021/06/30 10:20:18;;;;;;;11.40;10.50;;;20.10;99.90;;;;;;5062116;28;20508;-22
2021/06/30 10:22:49;;;;;;;11.63;10.63;;;20.10;99.90;;;;;;5063671;28;20452;-24
2021/06/30 10:25:20;;;;;;;12.43;11.43;;;20.00;99.90;;;;;;5062281;28;20440;-21
2021/06/30 10:27:55;;;;;;;11.20;10.30;;;20.00;99.90;;;;;;5063092;28;20431;-23
2021/06/30 10:30:29;;;;;;;11.07;10.27;;;20.00;99.90;;;;;;5062625;28;20448;-21
2021/06/30 10:33:04;;;;;;;10.60;9.70;;;20.00;99.90;;;;;;5063132;28;20763;-23
2021/06/30 10:35:47;;;;;;;11.20;10.30;;;20.00;99.90;;;;;;5062913;28;20538;-22
2021/06/30 10:38:20;;;;;;;10.97;10.13;;;20.00;99.90;;;;;;5062767;28;20577;-25
2021/06/30 10:40:54;;;;;;;11.87;10.83;;;20.00;99.90;;;;;;5061154;28;20475;-22
2021/06/30 10:43:28;;;;;;;11.63;10.53;;;19.90;99.90;;;;;;5060865;28;20510;-21
2021/06/30 10:46:26;;;;;;;10.80;9.80;;;19.90;99.90;;;;;;5062972;28;20463;-22
2021/06/30 10:49:25;;;;;;;11.20;10.13;;;19.90;99.90;;;;;;5062286;28;20814;-22
2021/06/30 10:52:04;;;;;;;11.53;10.53;;;19.90;99.90;;;;;;5062356;28;20434;-22
2021/06/30 10:54:53;;;;;;;10.70;9.90;;;19.80;99.90;;;;;;5061803;28;20908;-23
2021/06/30 10:57:32;;;;;;;11.40;10.40;;;19.70;99.90;;;;;;5033603;28;20461;-23
2021/06/30 11:00:22;;;;;;;11.97;10.77;;;19.60;99.90;;;;;;5062201;28;20460;-21
2021/06/30 11:03:25;;;;;;;11.03;10.00;;;19.70;99.90;;;;;;5062226;28;20475;-21
2021/06/30 11:06:18;;;;;;;11.60;10.70;;;19.60;99.90;;;;;;5053972;28;20426;-21
2021/06/30 11:08:54;;;;;;;11.00;10.20;;;19.70;99.90;;;;;;5062494;28;20440;-23
2021/06/30 11:12:03;;;;;;;11.30;10.30;;;19.60;99.90;;;;;;5060468;28;20472;-21
2021/06/30 11:14:46;;;;;;;10.50;9.53;;;19.60;99.90;;;;;;5061433;28;20540;-23
2021/06/30 11:17:40;;;;;;;10.50;9.53;;;19.50;99.90;;;;;;5062417;28;20743;-21
2021/06/30 11:20:11;;;;;;;10.40;9.40;;;19.40;99.90;;;;;;5037238;28;20981;-21
2021/06/30 11:22:44;;;;;;;11.77;10.57;;;19.40;99.90;;;;;;5062640;28;20448;-21
2021/06/30 11:25:26;;;;;;;11.77;10.70;;;19.40;99.90;;;;;;5061525;28;20460;-21
2021/06/30 11:27:57;;;;;;;10.60;9.70;;;19.40;99.90;;;;;;5062520;28;20449;-20
2021/06/30 11:30:37;;;;;;;11.17;10.27;;;19.40;99.90;;;;;;5061939;28;20419;-25
2021/06/30 11:33:21;;;;;;;11.53;10.07;;;19.30;99.90;;;;;;5062292;28;20463;-21
2021/06/30 11:36:04;;;;;;;11.17;10.17;;;19.30;99.90;;;;;;5061382;28;20488;-21
2021/06/30 11:38:41;;;;;;;11.37;10.50;;;19.30;99.90;;;;;;5058204;28;20486;-21
2021/06/30 11:41:22;;;;;;;11.30;10.20;;;19.20;99.90;;;;;;5060694;28;20456;-23
2021/06/30 11:43:55;;;;;;;10.47;9.67;;;19.20;99.90;;;;;;5061005;28;20549;-22
2021/06/30 11:46:37;;;;;;;10.83;9.93;;;19.20;99.90;;;;;;5060015;28;20537;-23
2021/06/30 11:49:14;;;;;;;10.47;9.60;;;19.20;99.90;;;;;;5062035;28;20448;-22
2021/06/30 11:51:45;;;;;;;11.20;10.10;;;19.20;99.90;;;;;;5061629;28;20471;-22
2021/06/30 11:54:20;;;;;;;10.37;9.47;;;19.10;99.90;;;;;;5060978;28;20496;-21
2021/06/30 11:56:51;;;;;;;11.23;10.27;;;19.10;99.90;;;;;;5061889;28;20488;-22
2021/06/30 11:59:25;;;;;;;10.70;9.80;;;19.10;99.90;;;;;;5061214;28;20450;-22
2021/06/30 12:01:56;;;;;;;10.53;9.73;;;19.00;99.90;;;;;;5062008;28;20518;-22
2021/06/30 12:04:28;;;;;;;10.87;9.83;;;19.10;99.90;;;;;;5061773;28;20543;-21
2021/06/30 12:07:04;;;;;;;10.93;9.90;;;19.00;99.90;;;;;;5061841;28;20518;-23
2021/06/30 12:09:39;;;;;;;10.47;9.50;;;19.00;99.90;;;;;;5060635;28;20445;-21
2021/06/30 12:12:12;;;;;;;11.03;10.00;;;18.90;99.90;;;;;;5061308;28;20483;-21
2021/06/30 12:14:49;;;;;;;11.63;10.60;;;18.90;99.90;;;;;;5060616;28;20460;-21
2021/06/30 12:20:08;;;;;;;11.23;10.23;;;18.90;99.90;;;;;;5059047;28;20933;-21
2021/06/30 12:22:42;;;;;;;11.40;10.40;;;18.90;99.90;;;;;;5063758;28;20452;-22
2021/06/30 12:25:28;;;;;;;11.43;10.53;;;18.90;99.90;;;;;;5064451;28;20444;-22
2021/06/30 12:28:03;;;;;;;10.53;9.63;;;18.80;99.90;;;;;;5065577;28;20460;-22
2021/06/30 12:30:38;;;;;;;10.30;9.50;;;18.70;99.90;;;;;;5064593;28;20472;-21
2021/06/30 12:33:12;;;;;;;11.37;10.17;;;18.70;99.90;;;;;;5065223;28;21052;-21
2021/06/30 12:35:55;;;;;;;11.00;10.20;;;18.70;99.90;;;;;;5065337;28;20566;-22
2021/06/30 12:38:31;;;;;;;11.33;10.37;;;18.70;99.90;;;;;;5050764;28;20489;-22
2021/06/30 12:41:08;;;;;;;10.63;9.73;;;18.70;99.90;;;;;;5063538;28;20448;-21
2021/06/30 12:43:42;;;;;;;11.30;10.40;;;18.70;99.90;;;;;;5065398;28;20470;-21
2021/06/30 12:46:21;;;;;;;10.07;9.27;;;18.70;99.90;;;;;;5064560;28;20455;-22
2021/06/30 12:48:52;;;;;;;10.17;9.37;;;18.80;99.90;;;;;;5076347;28;20528;-21
2021/06/30 12:54:14;;;;;;;11.47;10.50;;;18.80;99.90;;;;;;5063840;28;20479;-24
2021/06/30 12:57:00;;;;;;;10.87;9.87;;;18.80;99.90;;;;;;5065631;28;20484;-24
2021/06/30 12:59:33;;;;;;;10.90;10.00;;;18.80;99.90;;;;;;5065064;28;20448;-22
2021/06/30 13:02:20;;;;;;;11.63;10.43;;;18.90;99.90;;;;;;5065573;28;20471;-22
2021/06/30 13:04:52;;;;;;;11.07;10.27;;;18.90;99.90;;;;;;5064783;28;20491;-23
2021/06/30 13:07:39;;;;;;;10.70;9.90;;;18.90;99.90;;;;;;5065291;28;20452;-22
2021/06/30 13:10:29;;;;;;;11.50;10.50;;;19.00;99.90;;;;;;5064191;28;20515;-23
2021/06/30 13:13:13;;;;;;;11.07;10.07;;;19.00;99.90;;;;;;5052134;28;20426;-22
2021/06/30 13:16:06;;;;;;;11.73;10.73;;;19.10;99.90;;;;;;5064336;28;20464;-21
2021/06/30 13:18:46;;;;;;;12.37;11.27;;;19.10;99.90;;;;;;5064954;28;20437;-22
2021/06/30 13:21:17;;;;;;;11.07;10.07;;;19.30;99.90;;;;;;5064532;28;20478;-21
2021/06/30 13:23:59;;;;;;;11.90;10.90;;;19.20;99.90;;;;;;5064785;28;20436;-22
2021/06/30 13:35:25;;;;;;;11.60;10.43;;;19.50;99.90;;;;;;5064093;28;20501;-21
2021/06/30 13:38:03;;;;;;;10.77;9.97;;;19.60;99.90;;;;;;5064209;28;20457;-21
2021/06/30 13:40:38;;;;;;;12.00;10.03;;;19.70;99.90;;;;;;5062604;28;20462;-22
2021/06/30 13:43:13;;;;;;;10.50;9.50;;;19.60;99.90;;;;;;5063574;28;20990;-22
2021/06/30 13:45:52;;;;;;;10.90;9.97;;;19.60;99.90;;;;;;5063738;28;20456;-22